Legend Of The Seas — C6SL5 — position and weather

sailwx.info

Track history (hours):
 
Tides and Currents Weather Stations Pressure Air Temp Water Temp Dewpoint Dewpoint Depression Visibility Wind Speed Wind Dir Waves Ship Positions

Legend Of The Seas

Operator: Royal Caribbean Cruises Ltd

Last reported at 2018-Jul-22 03:00 UTC. Time now 2018-Jul-22 03:22 UTC.
Position N 45°27' E 013°18'.

Type: Passenger vessel. MMSI: 311378000.

Date/timePositionNaut miles runAvg speedWind from/ knotsBaromVisibWave heightAir tempDewpointWater temp
2018-Jul-22 03:00N 45°27' E 013°18'0 0.4
2018-Jul-22 02:30N 45°27' E 013°18'0 0.3
2018-Jul-22 02:01N 45°27' E 013°18'0 0.3
2018-Jul-22 01:31N 45°26' E 013°18'1 2.6
2018-Jul-22 01:01N 45°26' E 013°16'714.1
2018-Jul-22 00:30N 45°19' E 013°13'816.3
2018-Jul-22 00:00N 45°11' E 013°15'816.1
2018-Jul-21 23:29N 45°03' E 013°20'815.9
2018-Jul-21 23:00N 44°56' E 013°24'816.4
2018-Jul-21 22:31N 44°49' E 013°30'816.3
2018-Jul-21 22:00N 44°42' E 013°36'815.9
2018-Jul-21 21:30N 44°35' E 013°42'816.1
2018-Jul-21 21:00N 44°29' E 013°48'816.2
2018-Jul-21 20:30N 44°22' E 013°54'816.2
2018-Jul-21 20:00N 44°15' E 014°00'1216.0
2018-Jul-21 19:17N 44°06' E 014°10'1116.1
2018-Jul-21 18:38N 43°58' E 014°20'216.2
2018-Jul-21 18:29N 43°56' E 014°22'1616.3
2018-Jul-21 17:30N 43°44' E 014°36'1116.8
2018-Jul-21 16:51N 43°36' E 014°46'  
2018-Jul-18 15:21N 35°39' E 024°05'618.7
2018-Jul-18 15:00N 35°37' E 024°12'714.4
2018-Jul-18 14:30N 35°29' E 024°12'2 0.2
2018-Jul-18 03:47N 35°29' E 024°10'413.1
2018-Jul-18 03:31N 35°31' E 024°14'713.6
2018-Jul-18 03:00N 35°34' E 024°22'713.6
2018-Jul-18 02:30N 35°38' E 024°29'1113.3
2018-Jul-18 01:42N 35°42' E 024°41'  
Track history (hours):
 
Tides and Currents Weather Stations Pressure Air Temp Water Temp Dewpoint Dewpoint Depression Visibility Wind Speed Wind Dir Waves Ship Positions

Legend Of The Seas

Operator: Royal Caribbean Cruises Ltd

Last reported at 2018-Jul-22 03:00 UTC. Time now 2018-Jul-22 03:22 UTC.
Position N 45°27' E 013°18'.

Type: Passenger vessel. MMSI: 311378000.

Date/timePositionNaut miles runAvg speedWind from/ knotsBaromVisibWave heightAir tempDewpointWater temp
2018-Jul-22 03:00N 45°27' E 013°18'0 0.4
2018-Jul-22 02:30N 45°27' E 013°18'0 0.3
2018-Jul-22 02:01N 45°27' E 013°18'0 0.3
2018-Jul-22 01:31N 45°26' E 013°18'1 2.6
2018-Jul-22 01:01N 45°26' E 013°16'714.1
2018-Jul-22 00:30N 45°19' E 013°13'816.3
2018-Jul-22 00:00N 45°11' E 013°15'816.1
2018-Jul-21 23:29N 45°03' E 013°20'815.9
2018-Jul-21 23:00N 44°56' E 013°24'816.4
2018-Jul-21 22:31N 44°49' E 013°30'816.3
2018-Jul-21 22:00N 44°42' E 013°36'815.9
2018-Jul-21 21:30N 44°35' E 013°42'816.1
2018-Jul-21 21:00N 44°29' E 013°48'816.2
2018-Jul-21 20:30N 44°22' E 013°54'816.2
2018-Jul-21 20:00N 44°15' E 014°00'1216.0
2018-Jul-21 19:17N 44°06' E 014°10'1116.1
2018-Jul-21 18:38N 43°58' E 014°20'216.2
2018-Jul-21 18:29N 43°56' E 014°22'1616.3
2018-Jul-21 17:30N 43°44' E 014°36'1116.8
2018-Jul-21 16:51N 43°36' E 014°46'  
2018-Jul-18 15:21N 35°39' E 024°05'618.7
2018-Jul-18 15:00N 35°37' E 024°12'714.4
2018-Jul-18 14:30N 35°29' E 024°12'2 0.2
2018-Jul-18 03:47N 35°29' E 024°10'413.1
2018-Jul-18 03:31N 35°31' E 024°14'713.6
2018-Jul-18 03:00N 35°34' E 024°22'713.6
2018-Jul-18 02:30N 35°38' E 024°29'1113.3
2018-Jul-18 01:42N 35°42' E 024°41'  

Dump ship's entire track history